»·PEaware :: N62406 KVCV-KSDM

N62406 :: KVCV-KSDM

FLIGHT INFORMATION

Flight Status: Arrived
Operator: Privately registered:
United States
More flights under this callsign
Pilot: Jair P. (32054)
Aircraft: CESSNA 172 SKYHAWK
(C172)
More flights by this aircraft type
Origin: KVCV Socal Logistics
United States
Destination: KSDM Brown Mun
United States
More flights between these airports :: More routes between these airports
Route:
File this flight plan on PilotEdge
Remarks:
Altitude:
(Current/Filed)
7,500ft
Speed:
(Current/Filed)
110kts
Departed: 20-Nov-20 09:34 AM
Arrived: 20-Nov-20 10:51 AM
Distance/Time
Traveled:
123nm/1:17
Distance/Time
To Go:
Arrived

Flight Plot

Page will automatically refresh every two minutes.


Map Options




Map Legend


Flown Route
Filed Route
Departure Airport
Arrival Airport
Navaid (VOR, NDB)
Fix

Horizontal Profiles

Position Reports

Time Latitude Longitude Heading Altitude Ground
Speed
20-Nov-20 08:56 34.588995 -117.375505 46 2867ft 0kts
20-Nov-20 08:57 34.588995 -117.375505 46 2867ft 0kts
20-Nov-20 08:58 34.588995 -117.375505 46 2867ft 0kts
20-Nov-20 08:59 34.588995 -117.375505 46 2867ft 0kts
20-Nov-20 09:00 34.588995 -117.375505 46 2867ft 0kts
20-Nov-20 09:01 34.588994 -117.375506 46 2867ft 0kts
20-Nov-20 09:02 34.588994 -117.375507 46 2867ft 0kts
20-Nov-20 09:03 34.588994 -117.375507 45 2867ft 0kts
20-Nov-20 09:04 34.588993 -117.375508 45 2867ft 0kts
20-Nov-20 09:05 34.588993 -117.375509 45 2867ft 0kts
20-Nov-20 09:06 34.588993 -117.375510 45 2867ft 0kts
20-Nov-20 09:07 34.588993 -117.375510 45 2867ft 0kts
20-Nov-20 09:08 34.588992 -117.375511 45 2867ft 0kts
20-Nov-20 09:09 34.588992 -117.375511 45 2867ft 0kts
20-Nov-20 09:10 34.588992 -117.375512 44 2867ft 0kts
20-Nov-20 09:11 34.588991 -117.375513 44 2867ft 0kts
20-Nov-20 09:12 34.588991 -117.375514 44 2867ft 0kts
20-Nov-20 09:13 34.588990 -117.375514 44 2867ft 0kts
20-Nov-20 09:14 34.588990 -117.375515 44 2867ft 0kts
20-Nov-20 09:15 34.588990 -117.375516 44 2867ft 0kts
20-Nov-20 09:16 34.588989 -117.375516 43 2867ft 0kts
20-Nov-20 09:17 34.588989 -117.375517 43 2867ft 0kts
20-Nov-20 09:19 34.588988 -117.375518 43 2867ft 0kts
20-Nov-20 09:20 34.588988 -117.375519 43 2867ft 0kts
20-Nov-20 09:21 34.588988 -117.375519 43 2867ft 0kts
20-Nov-20 09:22 34.588987 -117.375520 43 2867ft 0kts
20-Nov-20 09:23 34.588987 -117.375521 42 2867ft 0kts
20-Nov-20 09:24 34.588986 -117.375521 42 2867ft 0kts
20-Nov-20 09:25 34.588986 -117.375522 42 2867ft 0kts
20-Nov-20 09:26 34.590136 -117.376100 36 2866ft 10kts
20-Nov-20 09:27 34.592510 -117.373230 43 2861ft 16kts
20-Nov-20 09:28 34.593292 -117.369597 88 2858ft 15kts
20-Nov-20 09:29 34.597840 -117.366899 10 2851ft 26kts
20-Nov-20 09:30 34.598948 -117.366665 326 2849ft 0kts
20-Nov-20 09:31 34.598948 -117.366665 326 2849ft 0kts
20-Nov-20 09:32 34.598948 -117.366665 326 2849ft 0kts
20-Nov-20 09:33 34.599394 -117.366776 342 2849ft 17kts
20-Nov-20 09:34 34.588734 -117.381128 229 3067ft 83kts
20-Nov-20 09:35 34.574124 -117.403931 231 3657ft 86kts
20-Nov-20 09:36 34.560198 -117.429212 239 4047ft 102kts
20-Nov-20 09:37 34.541327 -117.438937 136 4637ft 96kts
20-Nov-20 09:37 34.525173 -117.421245 136 5164ft 91kts
20-Nov-20 09:38 34.506376 -117.400985 153 5765ft 90kts
20-Nov-20 09:39 34.481945 -117.405193 191 6369ft 87kts
20-Nov-20 09:41 34.454303 -117.412194 190 7015ft 89kts
20-Nov-20 09:41 34.433594 -117.416722 188 7439ft 91kts
20-Nov-20 09:43 34.403988 -117.422819 186 8017ft 92kts
20-Nov-20 09:43 34.382938 -117.426382 186 8406ft 93kts
20-Nov-20 09:44 34.353830 -117.431364 186 8493ft 115kts
20-Nov-20 09:45 34.321380 -117.436923 186 8508ft 118kts
20-Nov-20 09:46 34.288695 -117.443018 188 8499ft 118kts
20-Nov-20 09:47 34.265386 -117.470614 220 8513ft 120kts
20-Nov-20 09:48 34.240070 -117.497894 220 8498ft 120kts
20-Nov-20 09:49 34.211802 -117.494869 192 8506ft 117kts
20-Nov-20 09:50 34.178774 -117.499226 184 8505ft 121kts
20-Nov-20 09:51 34.145527 -117.503137 185 8497ft 119kts
20-Nov-20 09:52 34.112561 -117.507036 185 8497ft 118kts
20-Nov-20 09:53 34.079911 -117.510902 185 8497ft 116kts
20-Nov-20 09:54 34.048355 -117.514636 185 8496ft 113kts
20-Nov-20 09:55 34.017130 -117.518330 185 8496ft 112kts
20-Nov-20 09:56 33.985914 -117.522033 186 8495ft 112kts
20-Nov-20 09:57 33.954708 -117.526528 186 8493ft 112kts
20-Nov-20 09:58 33.923641 -117.530925 186 8481ft 112kts
20-Nov-20 09:59 33.893324 -117.524542 170 8481ft 112kts
20-Nov-20 10:00 33.862374 -117.517666 170 8477ft 113kts
20-Nov-20 10:01 33.831345 -117.510812 170 8474ft 113kts
20-Nov-20 10:02 33.800479 -117.504013 170 8475ft 112kts
20-Nov-20 10:03 33.769827 -117.497263 170 8476ft 111kts
20-Nov-20 10:04 33.739338 -117.490555 170 8475ft 111kts
20-Nov-20 10:05 33.708568 -117.486594 174 8473ft 111kts
20-Nov-20 10:06 33.677444 -117.482044 173 8471ft 113kts
20-Nov-20 10:07 33.646313 -117.477451 174 8477ft 113kts
20-Nov-20 10:08 33.615011 -117.472825 174 8473ft 112kts
20-Nov-20 10:09 33.583683 -117.468199 174 8495ft 113kts
20-Nov-20 10:10 33.552693 -117.463621 173 8498ft 112kts
20-Nov-20 10:11 33.521417 -117.459005 174 8495ft 112kts
20-Nov-20 10:12 33.490660 -117.454471 174 8502ft 112kts
20-Nov-20 10:13 33.459360 -117.449860 174 8496ft 113kts
20-Nov-20 10:14 33.427586 -117.445187 174 8382ft 119kts
20-Nov-20 10:15 33.391716 -117.439900 173 7644ft 135kts
20-Nov-20 10:16 33.354281 -117.434398 173 6832ft 135kts
20-Nov-20 10:17 33.317296 -117.428966 173 6024ft 133kts
20-Nov-20 10:18 33.280598 -117.423580 172 5228ft 132kts
20-Nov-20 10:19 33.244488 -117.418373 173 4574ft 124kts
20-Nov-20 10:20 33.212410 -117.418787 202 4504ft 113kts
20-Nov-20 10:21 33.183436 -117.424681 156 4504ft 113kts
20-Nov-20 10:22 33.154178 -117.410061 157 4501ft 114kts
20-Nov-20 10:23 33.123748 -117.394898 157 4304ft 120kts
20-Nov-20 10:24 33.092738 -117.379448 157 4100ft 121kts
20-Nov-20 10:25 33.062056 -117.364182 157 4004ft 117kts
20-Nov-20 10:26 33.032218 -117.349347 157 4000ft 115kts
20-Nov-20 10:27 33.002533 -117.334596 157 3999ft 115kts
20-Nov-20 10:28 32.973157 -117.320007 157 3997ft 111kts
20-Nov-20 10:29 32.944617 -117.305844 157 3999ft 110kts
20-Nov-20 10:30 32.916118 -117.291712 157 4000ft 110kts
20-Nov-20 10:31 32.887749 -117.277652 157 4001ft 110kts
20-Nov-20 10:32 32.859259 -117.263540 157 4000ft 110kts
20-Nov-20 10:33 32.830860 -117.249484 157 4001ft 111kts
20-Nov-20 10:34 32.803344 -117.232722 147 4000ft 111kts
20-Nov-20 10:35 32.777347 -117.212463 147 3998ft 111kts
20-Nov-20 10:36 32.749961 -117.200906 170 3995ft 110kts
20-Nov-20 10:37 32.724010 -117.181259 147 3999ft 111kts
20-Nov-20 10:38 32.697878 -117.161444 147 3997ft 111kts
20-Nov-20 10:39 32.671219 -117.141247 147 3805ft 121kts
20-Nov-20 10:40 32.642668 -117.119624 147 3513ft 117kts
20-Nov-20 10:41 32.615913 -117.099375 147 3497ft 112kts
20-Nov-20 10:42 32.589542 -117.079431 147 3496ft 112kts
20-Nov-20 10:43 32.563194 -117.059515 147 3495ft 112kts
20-Nov-20 10:44 32.536843 -117.039593 145 3500ft 111kts
20-Nov-20 10:45 32.551232 -117.018791 7 3169ft 105kts
20-Nov-20 10:46 32.579543 -117.014749 31 2609ft 106kts
20-Nov-20 10:47 32.582531 -116.982366 85 1752ft 89kts
20-Nov-20 10:48 32.582557 -116.953750 107 1544ft 87kts
20-Nov-20 10:49 32.571473 -116.965920 275 635ft 75kts
20-Nov-20 10:50 32.572845 -116.981973 274 521ft 39kts
20-Nov-20 10:51 32.572151 -116.984149 187 525ft 0kts
20-Nov-20 10:52 32.571012 -116.985298 283 523ft 14kts
20-Nov-20 10:53 32.571408 -116.989541 280 522ft 18kts
20-Nov-20 10:54 32.570558 -116.990525 182 521ft 0kts

Navigation Log

Ident Type
Flight plan parsing failed, navigation log unavailable